Time;durP1;ratioP1;P1;durP2;ratioP2;P2;SDS_P1;SDS_P2;PMS_P1;PMS_P2;Temp;Humidity;BMP_temperature;BMP_pressure;BME280_temperature;BME280_humidity;BME280_pressure;Samples;Min_cycle;Max_cycle;Signal;HPM_P1;HPM_P2
2024/01/12 00:02:24;;;;;;;3.63;1.70;;;;;;;18.22;35.89;103292.63;4973046;28;99377;-86
2024/01/12 00:04:57;;;;;;;3.33;1.65;;;;;;;18.22;35.96;103297.91;4971351;28;98318;-86
2024/01/12 00:07:23;;;;;;;4.22;2.20;;;;;;;18.23;35.89;103304.06;4982650;28;96867;-86
2024/01/12 00:09:53;;;;;;;3.45;2.05;;;;;;;18.23;36.07;103304.06;4987832;28;96990;-86
2024/01/12 00:12:21;;;;;;;4.22;1.92;;;;;;;18.24;36.08;103303.22;4991601;28;98779;-86
2024/01/12 00:14:49;;;;;;;3.78;1.60;;;;;;;18.24;35.63;103305.84;4969357;28;96890;-86
2024/01/12 00:17:18;;;;;;;3.75;2.00;;;;;;;18.24;35.80;103303.22;5000986;28;97378;-86
2024/01/12 00:19:51;;;;;;;3.38;1.92;;;;;;;18.22;35.85;103297.91;4989352;28;96709;-86
2024/01/12 00:22:25;;;;;;;3.45;2.30;;;;;;;18.23;35.80;103297.00;4970948;28;99973;-86
2024/01/12 00:24:52;;;;;;;5.35;1.80;;;;;;;18.23;35.77;103293.50;4969174;28;96865;-86
2024/01/12 00:27:20;;;;;;;4.10;2.20;;;;;;;18.23;35.63;103294.38;4974211;28;97402;-85
2024/01/12 00:29:51;;;;;;;3.35;1.52;;;;;;;18.24;35.91;103304.09;4990907;28;96754;-85
2024/01/12 00:32:26;;;;;;;3.25;2.28;;;;;;;18.24;35.87;103300.56;5004251;28;99894;-86
2024/01/12 00:34:59;;;;;;;3.20;1.67;;;;;;;18.24;35.80;103300.56;5008902;28;97188;-86
2024/01/12 00:37:35;;;;;;;3.97;1.45;;;;;;;18.24;35.93;103304.09;4967261;28;97834;-86
2024/01/12 00:40:03;;;;;;;4.47;2.10;;;;;;;18.25;36.05;103310.25;4973897;28;96962;-86
2024/01/12 00:42:37;;;;;;;3.05;1.35;;;;;;;18.24;35.68;103300.56;4961631;28;97649;-86
2024/01/12 00:45:09;;;;;;;4.30;1.75;;;;;;;18.23;35.74;103302.28;4977578;28;97269;-86
2024/01/12 00:47:45;;;;;;;3.33;1.65;;;;;;;18.23;35.80;103294.38;4992587;28;97190;-86
2024/01/12 00:50:16;;;;;;;3.15;2.03;;;;;;;18.24;35.83;103290.88;4990109;28;96817;-86
2024/01/12 00:52:44;;;;;;;3.47;1.52;;;;;;;18.24;35.89;103292.66;4975124;28;96871;-86
2024/01/12 00:55:15;;;;;;;5.55;2.28;;;;;;;18.24;36.10;103282.09;4989747;28;98286;-86
2024/01/12 00:57:49;;;;;;;2.85;1.45;;;;;;;18.24;35.95;103290.00;4976918;28;97302;-86
2024/01/12 01:00:35;;;;;;;3.58;2.03;;;;;;;18.22;35.96;103292.63;4991864;28;97435;-86
2024/01/12 01:03:05;;;;;;;3.78;1.75;;;;;;;18.22;35.63;103297.91;4974333;28;99959;-86
2024/01/12 01:05:37;;;;;;;3.28;2.10;;;;;;;18.22;35.82;103300.53;4989521;28;96896;-86
2024/01/12 01:08:07;;;;;;;3.35;1.80;;;;;;;18.24;35.80;103303.22;4977570;28;97196;-86
2024/01/12 01:10:36;;;;;;;2.67;1.45;;;;;;;18.25;35.97;103304.97;4966171;28;96769;-86
2024/01/12 01:13:07;;;;;;;3.58;1.88;;;;;;;18.23;36.04;103306.69;4990478;28;96852;-86
2024/01/12 01:15:38;;;;;;;3.47;1.90;;;;;;;18.25;35.94;103318.19;4990579;28;96694;-86
2024/01/12 01:18:11;;;;;;;3.08;1.60;;;;;;;18.24;35.80;103314.66;4987369;28;96861;-85
2024/01/12 01:20:38;;;;;;;2.85;1.85;;;;;;;18.24;35.75;103314.66;4989092;28;96831;-86
2024/01/12 01:23:05;;;;;;;4.00;1.85;;;;;;;18.25;35.56;103319.09;4987942;28;97727;-85
2024/01/12 01:25:33;;;;;;;3.97;2.15;;;;;;;18.23;35.69;103314.63;4976179;28;98402;-86
2024/01/12 01:28:02;;;;;;;3.13;2.25;;;;;;;18.24;35.62;103329.63;4986498;28;96965;-85
2024/01/12 01:30:30;;;;;;;2.55;1.45;;;;;;;18.24;35.69;103330.50;4994506;28;96807;-86
2024/01/12 01:33:00;;;;;;;2.60;1.55;;;;;;;18.26;35.82;103330.53;4999368;28;96841;-85
2024/01/12 01:35:30;;;;;;;3.78;1.83;;;;;;;18.25;35.94;103328.75;5000411;28;97486;-88
2024/01/12 01:37:56;;;;;;;4.28;2.20;;;;;;;18.26;35.69;103335.84;5007312;28;96910;-88
2024/01/12 01:40:24;;;;;;;4.15;2.13;;;;;;;18.27;35.80;103343.78;4977216;28;96848;-88
2024/01/12 01:42:49;;;;;;;3.72;2.35;;;;;;;18.26;35.83;103339.34;4963720;28;97593;-88
2024/01/12 01:45:17;;;;;;;2.80;1.45;;;;;;;18.25;35.60;103328.75;4982007;28;97227;-85
2024/01/12 01:47:44;;;;;;;2.92;1.33;;;;;;;18.26;35.58;103338.47;4991948;28;96839;-88
2024/01/12 01:50:12;;;;;;;2.80;1.73;;;;;;;18.26;35.79;103335.84;4989099;28;96895;-86
2024/01/12 01:52:37;;;;;;;2.97;1.60;;;;;;;18.25;35.69;103327.03;4981234;28;96628;-86
2024/01/12 01:55:04;;;;;;;3.13;2.22;;;;;;;18.25;35.56;103332.31;4989710;28;97835;-86
2024/01/12 01:57:30;;;;;;;3.22;2.03;;;;;;;18.25;35.86;103326.09;4976199;28;96978;-85
2024/01/12 01:59:56;;;;;;;2.95;2.13;;;;;;;18.26;35.86;103333.19;4980354;28;97393;-86
2024/01/12 02:02:23;;;;;;;2.85;1.75;;;;;;;18.24;35.90;103325.22;4971386;28;99904;-86
2024/01/12 02:04:50;;;;;;;2.88;1.73;;;;;;;18.25;35.79;103318.19;4966046;28;99829;-86
2024/01/12 02:07:18;;;;;;;3.45;1.80;;;;;;;18.25;35.73;103319.09;4979807;28;96826;-86
2024/01/12 02:09:44;;;;;;;3.33;1.88;;;;;;;18.26;35.55;103318.22;4976295;28;97227;-86
2024/01/12 02:12:09;;;;;;;3.85;1.83;;;;;;;18.27;35.59;103319.13;4991202;28;100857;-86
2024/01/12 02:14:35;;;;;;;3.22;2.03;;;;;;;18.24;35.47;103308.50;4991731;28;97624;-86
2024/01/12 02:17:01;;;;;;;4.00;2.00;;;;;;;18.26;35.58;103320.88;4990530;28;96792;-86
2024/01/12 02:19:26;;;;;;;3.58;2.10;;;;;;;18.25;35.56;103315.53;4991678;28;97034;-86
2024/01/12 02:21:52;;;;;;;3.42;2.20;;;;;;;18.23;35.50;103312.88;4993761;28;98790;-86
2024/01/12 02:24:17;;;;;;;2.90;1.60;;;;;;;18.25;35.81;103312.91;4977613;28;99924;-86
2024/01/12 02:26:45;;;;;;;3.50;1.88;;;;;;;18.25;35.84;103319.09;4993439;28;96870;-86
2024/01/12 02:29:11;;;;;;;3.33;1.88;;;;;;;18.25;35.54;103316.47;5009814;28;97383;-86
2024/01/12 02:31:36;;;;;;;3.65;1.33;;;;;;;18.25;35.67;103313.81;4989580;28;97741;-86
2024/01/12 02:34:02;;;;;;;4.35;1.98;;;;;;;18.25;35.58;103310.25;4989022;28;97129;-86
2024/01/12 02:36:28;;;;;;;3.88;1.73;;;;;;;18.26;35.81;103307.66;4973883;28;97110;-86
2024/01/12 02:38:55;;;;;;;3.42;1.73;;;;;;;18.24;35.77;103298.81;4990053;28;96779;-86
2024/01/12 02:41:23;;;;;;;4.03;2.67;;;;;;;18.25;35.70;103297.97;4981861;28;96876;-86
2024/01/12 02:43:48;;;;;;;3.55;1.70;;;;;;;18.26;35.53;103301.50;4991844;28;96976;-86
2024/01/12 02:46:13;;;;;;;4.22;2.78;;;;;;;18.24;35.63;103296.16;4984697;28;97223;-86
2024/01/12 02:48:39;;;;;;;3.33;1.90;;;;;;;18.24;35.64;103293.53;4988374;28;117083;-86
2024/01/12 02:51:06;;;;;;;3.92;2.60;;;;;;;18.25;35.87;103304.97;4980999;28;104680;-86
2024/01/12 02:53:31;;;;;;;3.42;2.17;;;;;;;18.25;35.60;103304.97;4994329;28;98521;-86
2024/01/12 02:55:57;;;;;;;3.42;1.95;;;;;;;18.25;35.61;103304.97;4995826;28;96853;-86
2024/01/12 02:58:22;;;;;;;3.15;1.92;;;;;;;18.24;35.70;103306.75;5012172;28;97027;-86
2024/01/12 03:00:48;;;;;;;2.45;1.48;;;;;;;18.25;35.50;103304.97;4969596;28;105173;-85
2024/01/12 03:03:13;;;;;;;3.20;1.75;;;;;;;18.24;35.64;103303.22;4994217;28;96827;-86
2024/01/12 03:05:38;;;;;;;3.60;1.35;;;;;;;18.23;35.77;103304.94;4968749;28;98703;-86
2024/01/12 03:08:04;;;;;;;2.55;1.42;;;;;;;18.24;35.59;103309.38;5019997;28;96928;-86
2024/01/12 03:10:29;;;;;;;4.25;2.28;;;;;;;18.24;35.50;103297.94;4989754;28;97979;-86
2024/01/12 03:12:55;;;;;;;4.03;2.53;;;;;;;18.23;35.57;103291.72;5000374;28;97915;-86
2024/01/12 03:15:20;;;;;;;2.90;1.80;;;;;;;18.24;35.57;103287.38;4986195;28;96731;-86
2024/01/12 03:17:46;;;;;;;3.15;2.28;;;;;;;18.25;35.70;103286.47;4971446;28;113709;-87
2024/01/12 03:20:11;;;;;;;3.58;2.17;;;;;;;18.22;35.49;103289.97;4973189;28;122433;-86
2024/01/12 03:22:38;;;;;;;3.20;2.35;;;;;;;18.24;35.70;103295.28;4973758;28;96689;-86
2024/01/12 03:25:03;;;;;;;3.25;2.28;;;;;;;18.23;35.54;103290.84;5001555;28;96816;-86
2024/01/12 03:27:29;;;;;;;3.42;2.53;;;;;;;18.24;35.62;103290.00;4979368;28;96872;-85
2024/01/12 03:29:54;;;;;;;3.03;2.03;;;;;;;18.25;35.55;103291.78;4983739;28;111556;-86
2024/01/12 03:32:22;;;;;;;3.17;1.75;;;;;;;18.23;35.67;103294.38;4994703;28;106438;-85
2024/01/12 03:34:48;;;;;;;2.85;2.00;;;;;;;18.24;35.76;103290.00;4971986;28;96848;-85
2024/01/12 03:37:13;;;;;;;3.65;2.20;;;;;;;18.24;35.71;103287.38;5002769;28;97108;-85
2024/01/12 03:39:39;;;;;;;3.05;1.73;;;;;;;18.23;35.39;103290.84;4985573;28;98185;-86
2024/01/12 03:42:04;;;;;;;3.10;2.05;;;;;;;18.24;35.74;103279.44;5013590;28;98108;-86
2024/01/12 03:44:30;;;;;;;3.30;1.90;;;;;;;18.23;35.60;103270.59;4988804;28;97281;-86
2024/01/12 03:46:55;;;;;;;2.85;1.48;;;;;;;18.25;35.72;103265.34;4986135;28;106908;-86
2024/01/12 03:49:22;;;;;;;2.95;1.95;;;;;;;18.24;35.63;103260.94;4971746;28;96725;-86
2024/01/12 03:51:53;;;;;;;3.22;2.00;;;;;;;18.23;35.70;103265.31;4967765;28;96992;-86
2024/01/12 03:54:23;;;;;;;3.33;1.95;;;;;;;18.23;35.71;103267.97;5001219;28;96774;-86
2024/01/12 03:56:49;;;;;;;3.40;1.83;;;;;;;18.24;35.46;103261.81;5006251;28;97121;-86
2024/01/12 03:59:15;;;;;;;3.63;2.40;;;;;;;18.23;35.48;103261.78;4954925;28;96854;-86
2024/01/12 04:01:44;;;;;;;3.60;1.92;;;;;;;18.22;35.46;103250.34;4970981;28;97969;-85
2024/01/12 04:04:10;;;;;;;3.30;1.70;;;;;;;18.24;35.57;103260.94;5006100;28;96863;-85
2024/01/12 04:06:36;;;;;;;3.30;1.85;;;;;;;18.24;35.73;103258.31;4962449;28;97053;-86
2024/01/12 04:09:01;;;;;;;3.15;2.05;;;;;;;18.23;35.71;103265.31;4973937;28;100689;-86
2024/01/12 04:11:26;;;;;;;3.83;2.00;;;;;;;18.22;35.67;103263.56;4995202;28;97516;-86
2024/01/12 04:13:52;;;;;;;3.85;2.20;;;;;;;18.22;35.70;103260.91;4973712;28;96756;-86
2024/01/12 04:16:19;;;;;;;3.10;1.90;;;;;;;18.24;35.67;103277.69;4976057;28;97004;-86
2024/01/12 04:18:44;;;;;;;3.13;1.83;;;;;;;18.22;35.53;103274.13;4979734;28;97092;-86
2024/01/12 04:21:10;;;;;;;3.25;1.88;;;;;;;18.24;35.48;103276.78;5000621;28;97721;-86
2024/01/12 04:23:35;;;;;;;2.92;1.67;;;;;;;18.24;35.55;103280.31;4963247;28;96919;-86
2024/01/12 04:26:00;;;;;;;3.30;2.38;;;;;;;18.25;35.63;103273.28;4989839;28;105364;-86
2024/01/12 04:28:26;;;;;;;3.85;2.17;;;;;;;18.23;35.39;103281.16;4987360;28;112313;-86
2024/01/12 04:30:51;;;;;;;3.50;1.67;;;;;;;18.23;35.61;103281.16;5008872;28;108851;-86
2024/01/12 04:33:17;;;;;;;3.70;1.88;;;;;;;18.24;35.38;103261.81;4986980;28;96902;-86
2024/01/12 04:35:42;;;;;;;3.70;2.05;;;;;;;18.24;35.50;103268.88;4978247;28;97030;-85
2024/01/12 04:38:09;;;;;;;3.45;1.55;;;;;;;18.24;35.76;103266.22;4990211;28;97861;-86
2024/01/12 04:40:35;;;;;;;2.88;1.70;;;;;;;18.24;35.59;103266.22;4974303;28;97706;-86
2024/01/12 04:43:00;;;;;;;3.53;1.73;;;;;;;18.23;35.70;103273.25;4973136;28;97205;-86
2024/01/12 04:45:25;;;;;;;3.78;1.73;;;;;;;18.23;35.68;103267.97;4966901;28;99316;-86
2024/01/12 04:47:51;;;;;;;2.88;1.58;;;;;;;18.25;35.43;103275.91;4984617;28;128627;-86
2024/01/12 04:50:16;;;;;;;3.63;2.20;;;;;;;18.24;35.54;103266.22;4987959;28;97606;-86
2024/01/12 04:52:42;;;;;;;3.45;2.25;;;;;;;18.23;35.55;103260.03;4974343;28;96707;-86
2024/01/12 04:55:08;;;;;;;3.20;1.90;;;;;;;18.24;35.75;103255.66;4987603;28;102277;-86
2024/01/12 04:57:33;;;;;;;2.88;1.98;;;;;;;18.24;35.48;103253.91;4989489;28;98263;-86
2024/01/12 04:59:58;;;;;;;3.65;2.38;;;;;;;18.23;35.61;103244.19;4989219;28;97966;-86
2024/01/12 05:02:24;;;;;;;3.35;2.00;;;;;;;18.24;35.57;103245.09;4970187;28;116702;-86
2024/01/12 05:04:49;;;;;;;3.70;2.15;;;;;;;18.24;35.46;103245.09;4992222;28;96857;-86
2024/01/12 05:07:15;;;;;;;2.97;1.67;;;;;;;18.24;35.61;103247.75;4991191;28;96888;-85
2024/01/12 05:09:40;;;;;;;3.17;2.30;;;;;;;18.23;35.64;103251.22;4979902;28;97478;-86
2024/01/12 05:12:06;;;;;;;3.05;2.05;;;;;;;18.25;35.47;103246.84;4961863;28;96749;-85
2024/01/12 05:14:32;;;;;;;3.13;1.90;;;;;;;18.24;35.56;103245.97;4972847;28;98533;-86
2024/01/12 05:16:58;;;;;;;3.42;1.83;;;;;;;18.24;35.46;103251.25;4973853;28;97961;-86
2024/01/12 05:19:23;;;;;;;3.17;1.83;;;;;;;18.23;35.89;103246.81;4989741;28;97462;-86
2024/01/12 05:21:49;;;;;;;3.83;2.28;;;;;;;18.24;35.48;103239.81;4991367;28;97054;-86
2024/01/12 05:24:15;;;;;;;2.88;2.10;;;;;;;18.24;35.87;103239.81;4986082;28;96782;-85
2024/01/12 05:26:43;;;;;;;2.88;2.25;;;;;;;18.24;35.61;103245.97;4969968;28;99920;-86
2024/01/12 05:29:08;;;;;;;2.50;1.98;;;;;;;18.23;35.59;103254.75;4973593;28;98436;-86
2024/01/12 05:31:34;;;;;;;3.97;2.28;;;;;;;18.23;35.42;103254.75;4967595;28;96859;-86
2024/01/12 05:34:00;;;;;;;2.65;2.10;;;;;;;18.24;35.46;103263.59;4988235;28;97143;-86
2024/01/12 05:36:25;;;;;;;4.07;2.47;;;;;;;18.22;35.44;103258.28;4987175;28;97655;-86
2024/01/12 05:38:51;;;;;;;3.53;2.08;;;;;;;18.23;35.67;103260.03;5006539;28;97834;-86
2024/01/12 05:41:16;;;;;;;3.67;2.35;;;;;;;18.24;35.60;103266.22;4987931;28;96872;-86
2024/01/12 05:43:42;;;;;;;3.47;2.00;;;;;;;18.24;35.29;103274.16;4983067;28;96852;-85
2024/01/12 05:46:07;;;;;;;2.70;2.05;;;;;;;18.23;35.73;103259.16;4978064;28;99003;-85
2024/01/12 05:48:33;;;;;;;2.80;1.63;;;;;;;18.24;35.63;103261.81;5006243;28;97443;-84
2024/01/12 05:51:00;;;;;;;3.72;2.17;;;;;;;18.25;35.40;103265.34;4995631;28;96875;-85
2024/01/12 05:53:25;;;;;;;2.97;2.08;;;;;;;18.24;35.57;103258.31;4997449;28;96870;-85
2024/01/12 05:55:54;;;;;;;4.53;2.17;;;;;;;18.24;35.48;103263.59;4991585;28;97860;-85
2024/01/12 05:58:20;;;;;;;3.05;1.98;;;;;;;18.25;35.50;103257.44;4984570;28;97115;-85
2024/01/12 06:00:46;;;;;;;3.05;2.00;;;;;;;18.23;35.56;103257.38;4993934;28;97278;-85
2024/01/12 06:03:12;;;;;;;2.97;1.55;;;;;;;18.24;35.80;103263.59;4991918;28;96981;-85
2024/01/12 06:05:38;;;;;;;3.50;2.53;;;;;;;18.23;35.41;103253.88;4972004;28;96880;-85
2024/01/12 06:08:04;;;;;;;2.90;1.63;;;;;;;18.24;35.54;103267.13;4977567;28;99018;-84
2024/01/12 06:10:29;;;;;;;3.28;1.77;;;;;;;18.24;35.36;103275.03;4980786;28;96788;-85
2024/01/12 06:12:55;;;;;;;2.53;1.63;;;;;;;18.24;35.45;103275.03;4958158;28;97254;-85
2024/01/12 06:15:20;;;;;;;3.63;1.70;;;;;;;18.25;35.61;103275.91;4975215;28;99103;-84
2024/01/12 06:17:45;;;;;;;3.20;1.77;;;;;;;18.23;35.64;103278.53;4969514;28;97767;-85
2024/01/12 06:20:11;;;;;;;3.50;2.00;;;;;;;18.25;35.46;103284.75;4998816;28;96667;-84
2024/01/12 06:22:36;;;;;;;3.38;1.95;;;;;;;18.25;35.54;103289.13;4969097;28;96825;-85
2024/01/12 06:25:02;;;;;;;2.47;1.65;;;;;;;18.24;35.40;103282.97;4979940;28;108825;-84
2024/01/12 06:27:27;;;;;;;3.80;1.98;;;;;;;18.25;35.47;103283.84;4972946;28;98540;-84
2024/01/12 06:29:53;;;;;;;3.50;2.40;;;;;;;18.23;35.41;103285.56;5006429;28;97172;-85
2024/01/12 06:32:18;;;;;;;3.13;2.17;;;;;;;18.23;35.76;103294.38;4986599;28;98460;-84
2024/01/12 06:34:43;;;;;;;3.00;1.83;;;;;;;18.24;35.81;103293.53;4965475;28;105497;-84
2024/01/12 06:37:09;;;;;;;3.50;2.50;;;;;;;18.22;35.43;103289.97;5004872;28;98612;-85
2024/01/12 06:39:34;;;;;;;3.83;2.13;;;;;;;18.25;35.65;103287.41;4992537;28;116615;-85
2024/01/12 06:41:59;;;;;;;3.00;1.80;;;;;;;18.24;35.48;103284.72;4976731;28;96887;-84
2024/01/12 06:44:25;;;;;;;3.15;2.17;;;;;;;18.24;35.41;103296.16;4982612;28;128458;-84
2024/01/12 06:46:50;;;;;;;2.85;1.52;;;;;;;18.24;35.30;103284.72;5006445;28;97964;-85
2024/01/12 06:49:16;;;;;;;4.82;2.58;;;;;;;18.23;35.35;103278.53;4983213;28;116591;-84
2024/01/12 06:51:41;;;;;;;4.07;2.83;;;;;;;18.25;35.67;103275.91;4975656;28;96818;-85
2024/01/12 06:54:06;;;;;;;3.85;2.25;;;;;;;18.23;35.45;103275.88;4992715;28;126325;-85
2024/01/12 06:56:32;;;;;;;3.58;2.10;;;;;;;18.24;35.79;103266.22;4988327;28;98758;-84
2024/01/12 06:58:58;;;;;;;2.83;1.88;;;;;;;18.24;35.40;103276.78;4992541;28;97347;-84
2024/01/12 07:01:24;;;;;;;3.10;1.75;;;;;;;18.24;35.52;103277.69;4988236;28;97046;-84
2024/01/12 07:03:51;;;;;;;3.63;2.10;;;;;;;18.24;35.42;103271.50;4994431;28;98050;-84
2024/01/12 07:06:17;;;;;;;2.85;1.67;;;;;;;18.24;35.34;103264.47;4997715;28;96993;-85
2024/01/12 07:08:42;;;;;;;2.92;2.10;;;;;;;18.25;35.34;103260.06;4974493;28;96756;-85
2024/01/12 07:11:08;;;;;;;3.35;1.70;;;;;;;18.23;35.46;103262.66;4974050;28;97034;-84
2024/01/12 07:13:33;;;;;;;3.67;2.15;;;;;;;18.24;35.56;103261.81;4973216;28;97003;-84
2024/01/12 07:15:59;;;;;;;4.03;2.45;;;;;;;18.25;35.47;103265.34;4973886;28;96771;-84
2024/01/12 07:18:24;;;;;;;3.20;2.17;;;;;;;18.23;35.26;103269.72;4969331;28;97989;-85
2024/01/12 07:20:50;;;;;;;3.55;2.20;;;;;;;18.25;35.41;103265.34;4971647;28;97201;-84
2024/01/12 07:23:16;;;;;;;2.97;2.08;;;;;;;18.24;35.55;103269.75;4969637;28;96985;-84
2024/01/12 07:25:49;;;;;;;3.03;1.52;;;;;;;18.24;35.46;103277.69;4982489;28;97431;-84
2024/01/12 07:28:15;;;;;;;3.22;2.15;;;;;;;18.24;35.47;103279.44;5004242;28;97676;-84
2024/01/12 07:30:47;;;;;;;3.05;2.15;;;;;;;18.25;35.48;103281.19;5020608;28;96862;-86
2024/01/12 07:33:13;;;;;;;2.60;1.65;;;;;;;18.24;35.56;103275.03;5002007;28;100196;-85
2024/01/12 07:35:39;;;;;;;3.13;1.90;;;;;;;18.24;35.55;103266.22;4984492;28;119160;-85
2024/01/12 07:38:04;;;;;;;3.17;2.20;;;;;;;18.25;35.60;103257.44;4984734;28;96874;-85
2024/01/12 07:40:30;;;;;;;3.15;1.98;;;;;;;18.25;35.58;103265.34;4990680;28;97822;-85
2024/01/12 07:42:56;;;;;;;3.35;1.83;;;;;;;18.25;35.41;103260.06;4968407;28;97707;-85
2024/01/12 07:45:22;;;;;;;3.25;1.45;;;;;;;18.24;35.49;103258.31;4994127;28;96757;-85
2024/01/12 07:47:47;;;;;;;3.83;2.03;;;;;;;18.25;35.35;103257.44;4981999;28;96883;-85
2024/01/12 07:50:12;;;;;;;3.95;2.05;;;;;;;18.23;35.36;103260.03;4979707;28;117288;-85
2024/01/12 07:52:38;;;;;;;3.45;1.73;;;;;;;18.25;35.42;103260.06;4970482;28;114919;-85
2024/01/12 07:55:03;;;;;;;4.55;1.85;;;;;;;18.23;35.34;103260.03;4973930;28;122380;-83
2024/01/12 07:57:28;;;;;;;2.70;1.50;;;;;;;18.24;35.75;103258.31;4984211;28;97450;-84
2024/01/12 07:59:56;;;;;;;3.15;1.83;;;;;;;18.24;35.46;103259.19;4989393;28;113828;-84
2024/01/12 08:02:22;;;;;;;2.83;1.70;;;;;;;18.24;35.68;103259.19;5002500;28;99131;-84
2024/01/12 08:04:47;;;;;;;3.90;2.22;;;;;;;18.24;35.29;103256.53;4970132;28;98715;-84
2024/01/12 08:07:12;;;;;;;3.08;1.88;;;;;;;18.24;35.35;103266.22;4984019;28;116764;-84
2024/01/12 08:09:38;;;;;;;3.38;1.88;;;;;;;18.24;35.68;103275.03;4992014;28;97125;-84
2024/01/12 08:12:03;;;;;;;3.05;1.65;;;;;;;18.25;35.39;103275.91;4985931;28;97546;-83
2024/01/12 08:14:29;;;;;;;3.47;1.73;;;;;;;18.25;35.72;103270.63;4984952;28;98467;-83
2024/01/12 08:16:54;;;;;;;3.88;2.33;;;;;;;18.24;35.43;103261.81;4989908;28;97434;-84
2024/01/12 08:19:20;;;;;;;2.90;1.60;;;;;;;18.26;35.35;103264.50;4988957;28;96807;-83
2024/01/12 08:21:45;;;;;;;3.58;1.70;;;;;;;18.24;35.67;103275.03;4975811;28;96937;-83
2024/01/12 08:24:11;;;;;;;4.43;2.20;;;;;;;18.25;35.59;103279.47;4972399;28;126557;-84
2024/01/12 08:26:36;;;;;;;3.47;2.30;;;;;;;18.25;35.68;103278.56;4977226;28;96723;-84
2024/01/12 08:29:02;;;;;;;4.05;2.03;;;;;;;18.26;35.40;103280.34;4986706;28;96975;-84
2024/01/12 08:31:28;;;;;;;2.78;1.90;;;;;;;18.25;35.56;103273.28;4988319;28;96859;-83
2024/01/12 08:33:54;;;;;;;2.70;1.70;;;;;;;18.26;35.75;103264.50;4987877;28;97833;-84
2024/01/12 08:36:19;;;;;;;3.35;2.58;;;;;;;18.26;35.56;103268.03;4972451;28;97504;-83
2024/01/12 08:38:44;;;;;;;2.53;1.42;;;;;;;18.27;35.73;103274.22;5003970;28;96926;-84
2024/01/12 08:41:10;;;;;;;3.28;1.83;;;;;;;18.27;35.45;103274.22;4995082;28;97530;-83
2024/01/12 08:43:35;;;;;;;3.20;1.83;;;;;;;18.26;35.59;103281.22;5013999;28;98454;-84
2024/01/12 08:46:01;;;;;;;2.67;1.77;;;;;;;18.26;35.59;103283.00;4984341;28;96902;-84
2024/01/12 08:48:26;;;;;;;3.97;1.77;;;;;;;18.27;35.72;103279.50;4990013;28;97239;-84
2024/01/12 08:50:52;;;;;;;3.33;1.95;;;;;;;18.26;35.37;103270.66;4986725;28;98204;-83
2024/01/12 08:53:17;;;;;;;2.92;1.70;;;;;;;18.26;35.78;103275.94;4967107;28;97767;-83
2024/01/12 08:55:42;;;;;;;4.47;2.17;;;;;;;18.27;35.62;103279.50;4980971;28;112775;-84
2024/01/12 08:58:08;;;;;;;2.45;1.52;;;;;;;18.27;35.65;103274.22;4993730;28;121070;-83
2024/01/12 09:00:34;;;;;;;2.65;1.60;;;;;;;18.27;35.46;103271.59;5001591;28;97732;-84
2024/01/12 09:02:59;;;;;;;2.95;2.00;;;;;;;18.25;35.55;103263.63;4986876;28;127322;-84
2024/01/12 09:05:24;;;;;;;5.20;1.40;;;;;;;18.27;35.68;103271.59;4989446;28;114518;-84
2024/01/12 09:07:50;;;;;;;2.92;1.55;;;;;;;18.27;35.46;103266.28;4989389;28;97326;-83
2024/01/12 09:10:16;;;;;;;3.85;2.13;;;;;;;18.27;35.65;103261.00;4977690;28;98245;-83
2024/01/12 09:12:41;;;;;;;4.15;1.73;;;;;;;18.27;35.75;103261.91;5003900;28;99690;-83
2024/01/12 09:15:08;;;;;;;3.42;1.80;;;;;;;18.27;35.67;103264.53;4975267;28;118321;-83
2024/01/12 09:17:34;;;;;;;3.47;1.83;;;;;;;18.27;35.66;103264.53;4982603;28;97827;-83
2024/01/12 09:19:59;;;;;;;3.40;1.52;;;;;;;18.28;35.39;103275.97;4971547;28;100536;-84
2024/01/12 09:22:25;;;;;;;3.28;1.77;;;;;;;18.27;35.65;103267.19;4987242;28;98060;-84
2024/01/12 09:24:50;;;;;;;3.83;1.90;;;;;;;18.27;35.80;103256.59;4988289;28;96706;-84
2024/01/12 09:27:15;;;;;;;4.35;2.17;;;;;;;18.27;35.57;103259.25;4952639;28;115626;-84
2024/01/12 09:29:41;;;;;;;4.07;1.52;;;;;;;18.27;35.65;103261.91;4995456;28;128494;-84
2024/01/12 09:32:06;;;;;;;3.70;2.17;;;;;;;18.28;35.57;103260.13;4964712;28;97950;-84
2024/01/12 09:34:32;;;;;;;2.80;1.63;;;;;;;18.27;35.69;103250.44;4982206;28;96691;-84
2024/01/12 09:36:57;;;;;;;2.90;1.60;;;;;;;18.27;35.62;103247.81;5002144;27;96794;-84
2024/01/12 09:39:22;;;;;;;3.22;1.90;;;;;;;18.29;35.61;103239.88;4968875;28;118758;-84
2024/01/12 09:41:49;;;;;;;2.40;1.48;;;;;;;18.28;35.80;103241.63;4995426;28;97162;-84
2024/01/12 09:44:20;;;;;;;2.65;1.55;;;;;;;18.28;35.68;103239.00;4971715;28;97180;-84
2024/01/12 09:46:58;;;;;;;5.07;2.38;;;;;;;18.27;35.92;103240.75;4968630;28;96753;-84
2024/01/12 09:49:29;;;;;;;3.40;2.35;;;;;;;18.27;35.52;103246.03;4991359;28;96917;-84
2024/01/12 09:51:56;;;;;;;2.70;1.75;;;;;;;18.28;35.76;103249.56;5015359;27;97976;-84
2024/01/12 09:54:21;;;;;;;3.20;1.73;;;;;;;18.27;35.90;103250.44;4981510;28;96803;-85
2024/01/12 09:56:47;;;;;;;3.20;1.60;;;;;;;18.29;35.74;103256.66;4989513;28;107090;-83
2024/01/12 09:59:15;;;;;;;3.00;1.92;;;;;;;18.29;35.55;103258.38;4968916;28;98130;-84
2024/01/12 10:01:42;;;;;;;3.13;1.80;;;;;;;18.29;35.89;103259.28;4991168;28;96880;-84
2024/01/12 10:04:08;;;;;;;3.63;2.25;;;;;;;18.29;35.57;103261.94;5003484;28;96826;-83
2024/01/12 10:06:35;;;;;;;3.85;1.95;;;;;;;18.29;35.43;103272.50;4973363;28;96747;-84
2024/01/12 10:09:01;;;;;;;2.55;1.42;;;;;;;18.30;35.65;103273.38;4992429;28;99661;-84
2024/01/12 10:11:26;;;;;;;4.22;1.52;;;;;;;18.30;35.88;103268.09;4972993;28;100457;-84
2024/01/12 10:13:52;;;;;;;3.38;2.15;;;;;;;18.29;35.48;103267.22;5006760;28;96861;-84
2024/01/12 10:16:18;;;;;;;3.38;1.85;;;;;;;18.30;35.33;103265.44;5001378;28;96823;-84
2024/01/12 10:18:43;;;;;;;3.13;2.15;;;;;;;18.30;35.78;103274.25;4959606;28;97730;-83
2024/01/12 10:21:09;;;;;;;3.60;2.20;;;;;;;18.30;35.47;103268.09;4985600;28;98315;-84
2024/01/12 10:23:34;;;;;;;4.13;2.17;;;;;;;18.30;35.71;103261.03;4972778;28;100421;-84
2024/01/12 10:26:03;;;;;;;2.95;1.80;;;;;;;18.30;35.94;103257.53;4971327;28;97647;-84
2024/01/12 10:28:32;;;;;;;2.88;1.52;;;;;;;18.30;35.61;103250.47;5015412;27;100064;-84
2024/01/12 10:31:04;;;;;;;3.55;2.15;;;;;;;18.29;35.68;103251.34;4990828;28;97522;-84
2024/01/12 10:33:29;;;;;;;3.50;1.70;;;;;;;18.29;35.75;103259.28;4978854;28;96737;-84
2024/01/12 10:36:21;;;;;;;2.65;1.50;;;;;;;18.30;35.85;103255.75;4964146;28;96670;-84
2024/01/12 10:38:48;;;;;;;2.95;1.27;;;;;;;18.28;35.72;103262.78;4963710;28;96794;-84
2024/01/12 10:41:15;;;;;;;3.63;1.75;;;;;;;18.29;35.64;103254.00;4991687;28;97391;-85
2024/01/12 10:43:44;;;;;;;3.33;1.60;;;;;;;18.31;35.63;103254.03;4987057;28;97209;-84
2024/01/12 10:46:21;;;;;;;3.47;1.90;;;;;;;18.30;35.65;103250.47;5006572;28;96961;-84
2024/01/12 10:49:16;;;;;;;3.53;1.70;;;;;;;18.31;35.73;103251.41;4977114;28;98161;-84
2024/01/12 10:52:00;;;;;;;3.33;1.50;;;;;;;18.29;35.60;103254.00;4975614;28;97904;-84
2024/01/12 10:54:30;;;;;;;4.65;2.47;;;;;;;18.29;35.61;103248.72;4984336;28;96939;-84
2024/01/12 10:56:55;;;;;;;3.42;1.67;;;;;;;18.30;35.80;103245.19;4985813;28;96679;-84
2024/01/12 10:59:25;;;;;;;4.05;1.65;;;;;;;18.31;35.66;103235.53;4987974;28;97682;-83
2024/01/12 11:01:52;;;;;;;3.17;1.90;;;;;;;18.31;35.43;103243.47;4989303;28;96824;-83
2024/01/12 11:04:19;;;;;;;3.33;2.10;;;;;;;18.32;35.53;103245.22;4985880;28;96743;-83
2024/01/12 11:06:45;;;;;;;3.38;2.17;;;;;;;18.32;35.46;103237.31;4981598;28;96877;-83
2024/01/12 11:09:12;;;;;;;2.70;1.55;;;;;;;18.32;35.49;103238.19;4993563;28;96850;-83
2024/01/12 11:11:46;;;;;;;3.10;1.60;;;;;;;18.32;35.40;103234.66;4977073;28;97349;-83
2024/01/12 11:14:14;;;;;;;3.00;1.80;;;;;;;18.31;35.64;103239.06;4988997;28;96804;-82
2024/01/12 11:16:39;;;;;;;3.10;2.20;;;;;;;18.33;35.53;103231.16;5003364;28;98344;-82
2024/01/12 11:19:14;;;;;;;2.88;2.20;;;;;;;18.33;35.70;103233.81;4988372;28;96850;-82
2024/01/12 11:21:41;;;;;;;3.05;1.95;;;;;;;18.31;35.78;103233.78;4985402;28;99414;-82
2024/01/12 11:24:09;;;;;;;2.60;1.67;;;;;;;18.32;35.63;103235.53;4990600;28;96807;-82